Time;durP1;ratioP1;P1;durP2;ratioP2;P2;SDS_P1;SDS_P2;PMS_P1;PMS_P2;Temp;Humidity;BMP_temperature;BMP_pressure;BME280_temperature;BME280_humidity;BME280_pressure;Samples;Min_cycle;Max_cycle;Signal;HPM_P1;HPM_P2
2022/11/16 00:00:30;;;;;;;56.33;24.55;;;;;;;5.19;97.92;99899.38;5090283;28;20080;-27
2022/11/16 00:02:55;;;;;;;71.25;27.92;;;;;;;5.01;97.62;99881.31;5090018;28;20024;-29
2022/11/16 00:05:21;;;;;;;75.70;26.73;;;;;;;5.22;99.12;99899.00;5090384;28;20023;-28
2022/11/16 00:07:46;;;;;;;93.18;27.23;;;;;;;4.99;99.09;99883.31;5071706;28;20543;-27
2022/11/16 00:10:12;;;;;;;65.30;25.80;;;;;;;5.22;98.22;99887.63;5089943;28;20062;-28
2022/11/16 00:12:38;;;;;;;86.43;26.10;;;;;;;4.96;98.13;99888.16;5090271;28;20032;-31
2022/11/16 00:15:05;;;;;;;60.38;25.60;;;;;;;4.95;99.25;99892.63;5089850;28;20028;-29
2022/11/16 00:17:31;;;;;;;57.00;24.95;;;;;;;4.91;99.35;99895.81;5071295;28;20024;-33
2022/11/16 00:19:57;;;;;;;50.28;24.33;;;;;;;5.08;97.85;99881.38;5071872;28;20401;-30
2022/11/16 00:22:23;;;;;;;61.72;25.65;;;;;;;4.60;99.49;99871.28;5089762;28;20032;-31
2022/11/16 00:24:48;;;;;;;66.60;26.58;;;;;;;4.95;99.54;99868.03;5089935;28;20040;-28
2022/11/16 00:27:13;;;;;;;56.17;25.75;;;;;;;4.95;98.61;99891.81;5071388;28;20028;-28
2022/11/16 00:29:39;;;;;;;61.83;25.08;;;;;;;4.51;100.00;99884.75;5071232;28;20031;-28
2022/11/16 00:32:04;;;;;;;62.33;25.15;;;;;;;4.47;100.00;99886.13;5089432;28;20088;-27
2022/11/16 00:34:30;;;;;;;86.57;25.98;;;;;;;4.44;100.00;99884.69;5083426;28;20028;-28
2022/11/16 00:36:55;;;;;;;64.88;24.92;;;;;;;4.87;100.00;99873.41;5069488;28;20111;-28
2022/11/16 00:39:21;;;;;;;87.07;28.20;;;;;;;4.79;100.00;99883.09;5069685;28;20039;-28
2022/11/16 00:41:47;;;;;;;72.38;25.63;;;;;;;4.90;98.90;99859.81;5067820;28;20539;-28
2022/11/16 00:44:13;;;;;;;59.53;25.23;;;;;;;4.80;98.82;99853.03;5050722;28;20029;-27
2022/11/16 00:46:38;;;;;;;83.35;26.88;;;;;;;4.87;98.67;99849.66;5068872;28;20024;-29
2022/11/16 00:49:04;;;;;;;54.55;25.27;;;;;;;4.98;97.68;99849.13;5051173;28;20044;-28
2022/11/16 00:51:30;;;;;;;66.78;26.50;;;;;;;4.93;97.42;99848.91;5051100;28;20029;-27
2022/11/16 00:53:56;;;;;;;69.47;27.10;;;;;;;4.76;99.04;99859.69;5068226;28;20408;-28
2022/11/16 00:56:21;;;;;;;60.20;25.70;;;;;;;4.54;99.37;99852.72;5068735;28;20029;-28
2022/11/16 00:58:47;;;;;;;71.93;25.35;;;;;;;4.81;99.49;99859.94;5068948;28;20407;-28
2022/11/16 01:01:12;;;;;;;77.20;27.40;;;;;;;4.47;100.00;99851.81;5068855;28;20419;-28
2022/11/16 01:03:38;;;;;;;58.35;22.90;;;;;;;4.32;100.00;99834.16;5068707;28;20104;-27
2022/11/16 01:06:08;;;;;;;64.63;23.23;;;;;;;4.35;100.00;99846.16;5068885;28;20491;-33
2022/11/16 01:08:35;;;;;;;48.45;23.65;;;;;;;4.03;100.00;99830.53;5050503;28;20089;-27
2022/11/16 01:13:47;;;;;;;65.43;22.10;;;;;;;4.02;100.00;99815.72;5046635;28;20075;-28
2022/11/16 01:16:18;;;;;;;62.08;21.52;;;;;;;4.01;100.00;99843.09;5068539;28;20520;-29
2022/11/16 01:18:47;;;;;;;63.65;23.90;;;;;;;3.76;100.00;99821.44;5068663;28;20021;-29
2022/11/16 01:21:13;;;;;;;64.30;21.80;;;;;;;3.72;100.00;99827.22;5068888;28;20163;-30
2022/11/16 01:23:38;;;;;;;54.17;21.52;;;;;;;3.87;100.00;99832.53;5068698;28;20037;-27
2022/11/16 01:26:04;;;;;;;45.95;20.92;;;;;;;3.83;100.00;99829.44;5068283;28;20025;-30
2022/11/16 01:28:30;;;;;;;54.95;22.33;;;;;;;3.82;100.00;99822.50;5067904;28;20120;-28
2022/11/16 01:30:56;;;;;;;53.92;22.17;;;;;;;4.05;100.00;99805.81;5050269;28;20083;-28
2022/11/16 01:33:22;;;;;;;57.25;22.60;;;;;;;4.06;100.00;99825.91;5068249;28;20090;-30
2022/11/16 01:35:47;;;;;;;61.10;22.10;;;;;;;4.05;100.00;99805.81;5068403;28;20043;-29
2022/11/16 01:38:13;;;;;;;55.40;22.60;;;;;;;4.32;100.00;99818.31;5066490;28;20032;-28
2022/11/16 01:40:39;;;;;;;50.45;23.15;;;;;;;3.94;99.46;99784.16;5050193;28;20113;-28
2022/11/16 01:43:31;;;;;;;43.67;21.00;;;;;;;3.84;100.00;99809.97;5049670;28;20090;-36
2022/11/16 01:45:57;;;;;;;49.65;22.35;;;;;;;4.19;100.00;99802.34;5035898;28;20098;-28
2022/11/16 01:48:26;;;;;;;54.55;22.65;;;;;;;4.28;98.86;99784.56;5067455;28;20052;-28
2022/11/16 01:50:54;;;;;;;48.85;23.48;;;;;;;4.53;97.90;99811.47;5067733;28;20036;-27
2022/11/16 01:53:20;;;;;;;;;;;;;;;4.62;97.18;99813.00;5068112;28;20036;-28
2022/11/16 01:55:47;;;;;;;41.45;21.48;;;;;;;4.74;95.80;99811.50;5049286;28;19912;-30
2022/11/16 01:58:17;;;;;;;49.60;21.63;;;;;;;4.38;97.45;99807.03;5067408;28;20024;-27
2022/11/16 02:00:42;;;;;;;52.92;22.45;;;;;;;4.40;97.93;99805.00;5049527;28;20523;-28
2022/11/16 02:03:08;;;;;;;46.05;22.05;;;;;;;4.38;98.29;99807.03;5049438;28;20024;-28
2022/11/16 02:05:42;;;;;;;44.53;21.60;;;;;;;4.50;97.08;99804.72;5066296;28;20029;-30
2022/11/16 02:11:38;;;;;;;114.38;37.03;;;;;;;4.35;97.76;99798.66;5067563;28;20055;-30
2022/11/16 02:14:09;;;;;;;85.47;27.13;;;;;;;4.36;96.97;99809.03;5049204;28;20126;-28
2022/11/16 02:16:47;;;;;;;58.83;24.63;;;;;;;4.60;95.59;99809.72;5067586;28;20440;-30
2022/11/16 02:19:30;;;;;;;53.90;24.08;;;;;;;4.33;96.91;99782.19;5067412;28;20111;-30
2022/11/16 02:22:11;;;;;;;80.78;25.15;;;;;;;4.10;99.04;99798.13;5049183;28;20040;-28
2022/11/16 02:25:03;;;;;;;98.82;25.73;;;;;;;4.08;99.14;99805.41;5048950;28;20029;-28
2022/11/16 02:27:46;;;;;;;63.95;25.83;;;;;;;4.30;99.06;99783.38;5063019;28;20051;-28
2022/11/16 02:30:12;;;;;;;78.85;29.50;;;;;;;3.95;100.00;99796.31;5066763;28;20497;-28
2022/11/16 02:32:46;;;;;;;65.25;26.23;;;;;;;3.83;100.00;99793.31;5067100;28;20032;-30
2022/11/16 02:35:40;;;;;;;86.60;28.75;;;;;;;3.84;100.00;99791.50;5067057;28;20033;-30
2022/11/16 02:38:12;;;;;;;69.43;29.23;;;;;;;4.19;100.00;99789.94;5064246;28;20431;-28
2022/11/16 02:40:43;;;;;;;73.50;29.83;;;;;;;4.18;99.73;99774.28;5049045;28;20559;-28
2022/11/16 02:43:19;;;;;;;72.32;30.42;;;;;;;4.35;99.59;99796.00;5048580;28;20125;-28
2022/11/16 02:45:50;;;;;;;70.70;30.27;;;;;;;4.00;99.70;99767.59;5067087;28;20082;-27
2022/11/16 02:48:31;;;;;;;76.72;30.50;;;;;;;4.05;100.00;99763.59;5048153;28;20526;-29
2022/11/16 02:50:57;;;;;;;85.38;32.78;;;;;;;4.19;100.00;99783.84;5048906;28;20119;-31
2022/11/16 02:53:24;;;;;;;98.07;33.60;;;;;;;4.35;99.61;99775.72;5066677;28;20536;-28
2022/11/16 02:55:50;;;;;;;77.30;31.50;;;;;;;4.18;100.00;99779.56;5066463;28;20056;-30
2022/11/16 02:58:24;;;;;;;105.47;33.60;;;;;;;4.22;100.00;99776.38;5066729;28;20121;-28
2022/11/16 03:01:02;;;;;;;79.43;32.00;;;;;;;4.20;100.00;99782.84;5067220;28;20025;-28
2022/11/16 03:03:49;;;;;;;81.28;28.70;;;;;;;4.26;100.00;99774.19;5048958;28;20024;-28
2022/11/16 03:06:23;;;;;;;76.68;31.58;;;;;;;3.83;100.00;99740.56;5066683;28;20043;-29
2022/11/16 03:09:11;;;;;;;81.80;30.65;;;;;;;4.35;100.00;99764.31;5048698;28;20036;-28
2022/11/16 03:11:58;;;;;;;66.85;29.30;;;;;;;4.36;98.90;99756.22;5066790;28;20025;-27
2022/11/16 03:14:32;;;;;;;69.60;31.75;;;;;;;3.70;100.00;99729.00;5048280;28;20466;-27
2022/11/16 03:16:59;;;;;;;60.42;28.63;;;;;;;3.92;100.00;99749.19;5069603;28;20021;-27
2022/11/16 03:19:44;;;;;;;61.05;28.48;;;;;;;3.95;100.00;99759.38;5070940;28;20033;-27
2022/11/16 03:22:24;;;;;;;72.85;29.67;;;;;;;4.29;99.81;99744.78;5052574;28;20025;-28
2022/11/16 03:24:50;;;;;;;61.70;30.50;;;;;;;3.64;100.00;99725.31;5070681;28;20078;-27
2022/11/16 03:27:15;;;;;;;64.50;27.35;;;;;;;3.63;100.00;99735.00;5052084;28;20411;-31
2022/11/16 03:30:13;;;;;;;66.80;26.83;;;;;;;3.34;100.00;99750.81;5052358;28;20097;-29
2022/11/16 03:32:53;;;;;;;72.25;28.50;;;;;;;3.66;100.00;99740.91;5069776;28;20048;-28
2022/11/16 03:35:26;;;;;;;69.50;27.63;;;;;;;3.66;100.00;99739.13;5051965;28;20149;-30
2022/11/16 03:37:55;;;;;;;68.68;26.63;;;;;;;3.59;100.00;99741.66;5070295;28;20024;-27
2022/11/16 03:40:24;;;;;;;63.33;27.58;;;;;;;3.18;100.00;99702.53;5070150;28;20499;-30
2022/11/16 03:42:50;;;;;;;61.90;28.23;;;;;;;3.59;100.00;99720.56;5052097;28;20803;-27
2022/11/16 03:45:18;;;;;;;68.68;28.17;;;;;;;3.43;100.00;99720.72;5070209;28;20032;-28
2022/11/16 03:47:44;;;;;;;72.00;29.55;;;;;;;3.28;100.00;99704.91;5051325;28;20044;-28
2022/11/16 03:50:10;;;;;;;68.18;28.92;;;;;;;3.26;100.00;99716.63;5070166;28;20089;-28
2022/11/16 03:52:36;;;;;;;70.38;27.77;;;;;;;3.17;100.00;99710.63;5051870;28;20036;-28
2022/11/16 03:55:01;;;;;;;79.20;28.90;;;;;;;3.34;100.00;99706.00;5052155;28;20122;-30
2022/11/16 03:57:26;;;;;;;80.72;28.25;;;;;;;3.14;100.00;99710.97;5052007;28;20032;-28
2022/11/16 03:59:52;;;;;;;69.70;27.55;;;;;;;3.49;100.00;99709.47;5069938;28;20025;-28
2022/11/16 04:02:17;;;;;;;54.83;26.85;;;;;;;3.49;100.00;99691.00;5069474;28;20032;-28
2022/11/16 04:24:23;;;;;;;65.65;35.70;;;;;;;4.27;100.00;99704.56;5069558;28;20027;-28
2022/11/16 04:29:38;;;;;;;70.65;36.38;;;;;;;4.32;100.00;99686.31;5068930;28;20399;-28
2022/11/16 04:37:47;;;;;;;63.00;31.23;;;;;;;4.46;100.00;99686.47;5069185;28;20039;-29
2022/11/16 04:40:14;;;;;;;67.40;27.95;;;;;;;4.55;99.54;99658.91;5069051;28;20028;-28
2022/11/16 04:42:39;;;;;;;58.80;29.58;;;;;;;4.54;99.18;99655.47;5069255;28;20066;-30
2022/11/16 04:47:50;;;;;;;58.05;28.65;;;;;;;4.72;99.70;99680.59;5068958;28;20109;-31
2022/11/16 04:50:17;;;;;;;59.97;30.60;;;;;;;4.79;99.66;99682.28;5069113;28;20028;-30
2022/11/16 04:52:43;;;;;;;65.72;32.42;;;;;;;4.47;100.00;99651.94;5069114;28;20036;-30
2022/11/16 04:55:08;;;;;;;66.68;32.65;;;;;;;4.66;99.55;99647.03;5069082;28;20028;-28
2022/11/16 04:57:33;;;;;;;79.30;32.22;;;;;;;4.66;98.79;99634.66;5069177;28;20403;-34
2022/11/16 04:59:59;;;;;;;74.90;33.42;;;;;;;4.81;99.71;99653.88;5068815;28;20517;-28
2022/11/16 05:02:24;;;;;;;79.22;34.25;;;;;;;4.91;98.87;99663.28;5068435;28;20025;-28
2022/11/16 05:04:50;;;;;;;90.30;36.40;;;;;;;4.83;99.40;99656.31;5067155;28;20342;-29
2022/11/16 05:07:15;;;;;;;115.32;37.10;;;;;;;4.58;99.97;99648.81;5069165;28;20625;-27
2022/11/16 05:09:43;;;;;;;101.80;36.63;;;;;;;4.51;100.00;99660.31;5068713;28;20059;-29
2022/11/16 05:12:27;;;;;;;95.10;34.65;;;;;;;4.76;100.00;99664.19;5069056;28;20042;-30
2022/11/16 05:14:56;;;;;;;112.95;34.67;;;;;;;4.69;100.00;99665.94;5068627;28;20175;-28
2022/11/16 05:17:23;;;;;;;106.68;35.13;;;;;;;4.67;100.00;99646.84;5068446;28;20038;-30
2022/11/16 05:22:33;;;;;;;111.75;33.40;;;;;;;4.68;100.00;99664.34;5068408;28;20761;-28
2022/11/16 05:24:59;;;;;;;91.00;32.05;;;;;;;4.47;100.00;99656.41;5068290;28;20237;-28
2022/11/16 05:27:25;;;;;;;111.20;32.83;;;;;;;4.61;100.00;99626.47;5050098;28;20082;-27
2022/11/16 05:29:51;;;;;;;117.60;31.20;;;;;;;4.71;100.00;99657.84;5049735;28;20032;-31
2022/11/16 05:32:19;;;;;;;105.75;33.00;;;;;;;4.78;100.00;99664.81;5049894;28;20025;-29
2022/11/16 05:34:45;;;;;;;107.68;32.90;;;;;;;4.41;100.00;99657.97;5068116;28;20131;-35
2022/11/16 05:37:11;;;;;;;80.88;29.90;;;;;;;4.59;100.00;99657.53;5068367;28;20028;-29
2022/11/16 05:39:37;;;;;;;65.35;28.50;;;;;;;4.54;100.00;99662.59;5049703;28;20078;-29
2022/11/16 05:42:02;;;;;;;85.63;29.98;;;;;;;4.54;99.76;99658.09;5067795;28;20040;-29
2022/11/16 05:44:28;;;;;;;75.78;27.73;;;;;;;4.45;100.00;99663.69;5067677;28;20553;-28
2022/11/16 05:46:54;;;;;;;85.28;29.58;;;;;;;4.22;100.00;99640.94;5067567;28;20048;-28
2022/11/16 05:49:20;;;;;;;80.70;30.35;;;;;;;4.26;100.00;99629.00;5066483;28;20028;-28
2022/11/16 05:51:47;;;;;;;66.68;28.60;;;;;;;4.38;100.00;99648.63;5049693;28;20036;-31
2022/11/16 05:54:15;;;;;;;67.82;28.60;;;;;;;4.45;100.00;99664.50;5067754;28;20060;-28
2022/11/16 05:56:41;;;;;;;70.80;26.85;;;;;;;4.44;100.00;99673.47;5067829;28;20036;-29
2022/11/16 05:59:07;;;;;;;67.32;28.48;;;;;;;3.91;100.00;99642.03;5049547;28;20032;-28
2022/11/16 06:01:33;;;;;;;68.00;28.80;;;;;;;3.86;100.00;99649.69;5049607;28;20038;-27
2022/11/16 06:04:00;;;;;;;65.70;28.20;;;;;;;4.37;100.00;99657.56;5049556;28;20231;-29
2022/11/16 06:06:26;;;;;;;74.15;29.95;;;;;;;4.34;100.00;99647.34;5049299;28;20028;-27
2022/11/16 06:08:51;;;;;;;64.47;27.30;;;;;;;4.31;100.00;99663.59;5067237;28;20036;-28
2022/11/16 06:11:17;;;;;;;54.53;25.17;;;;;;;4.34;100.00;99655.28;5067655;28;20040;-32
2022/11/16 06:13:42;;;;;;;76.35;29.05;;;;;;;4.55;100.00;99649.16;5067034;28;20544;-29
2022/11/16 06:16:08;;;;;;;66.95;29.10;;;;;;;4.52;100.00;99651.41;5067627;28;20672;-30
2022/11/16 06:18:41;;;;;;;87.65;28.00;;;;;;;4.50;100.00;99645.47;5049027;28;20035;-32
2022/11/16 06:21:08;;;;;;;81.47;28.63;;;;;;;4.62;100.00;99643.97;5067388;28;20477;-32
2022/11/16 06:23:34;;;;;;;87.75;29.08;;;;;;;4.70;100.00;99648.28;5048942;28;20025;-31
2022/11/16 06:26:00;;;;;;;84.40;33.97;;;;;;;4.76;100.00;99666.00;5067212;28;20040;-29
2022/11/16 06:28:26;;;;;;;70.15;28.50;;;;;;;4.81;100.00;99645.94;5048765;28;20059;-29
2022/11/16 06:30:51;;;;;;;56.42;26.67;;;;;;;4.87;100.00;99654.94;5049054;28;20032;-28
2022/11/16 06:33:17;;;;;;;61.03;29.35;;;;;;;4.65;100.00;99626.91;5067117;28;20412;-28
2022/11/16 06:35:43;;;;;;;61.63;27.52;;;;;;;4.68;100.00;99637.91;5066877;28;20731;-35
2022/11/16 06:38:08;;;;;;;64.03;27.65;;;;;;;4.92;100.00;99664.91;5048947;28;20121;-28
2022/11/16 06:40:34;;;;;;;88.00;40.30;;;;;;;4.89;100.00;99638.91;5066518;28;20039;-29
2022/11/16 06:42:59;;;;;;;61.90;28.65;;;;;;;4.97;100.00;99647.47;5082515;28;20028;-27
2022/11/16 06:45:26;;;;;;;62.92;29.63;;;;;;;4.74;100.00;99621.31;5087458;28;20038;-30
2022/11/16 06:47:51;;;;;;;62.70;27.73;;;;;;;4.97;100.00;99614.97;5086822;28;20581;-28
2022/11/16 06:50:20;;;;;;;64.05;29.83;;;;;;;5.15;99.92;99633.78;5086438;28;20120;-28
2022/11/16 06:52:47;;;;;;;88.20;30.38;;;;;;;5.03;100.00;99619.47;5086811;28;20035;-30
2022/11/16 06:55:12;;;;;;;71.03;30.10;;;;;;;4.99;100.00;99634.09;5087118;28;20024;-28
2022/11/16 06:57:38;;;;;;;73.15;30.95;;;;;;;5.15;100.00;99607.34;5086628;28;20038;-30
2022/11/16 07:00:05;;;;;;;71.10;29.85;;;;;;;5.41;100.00;99637.56;5086935;28;20039;-28
2022/11/16 07:02:30;;;;;;;72.82;29.45;;;;;;;5.43;100.00;99630.25;5068295;28;20032;-28
2022/11/16 07:04:56;;;;;;;66.85;28.83;;;;;;;5.70;99.16;99640.97;5087119;28;20027;-29
2022/11/16 07:07:21;;;;;;;71.13;29.77;;;;;;;5.71;99.51;99642.59;5086715;28;20059;-29
2022/11/16 07:09:47;;;;;;;73.90;32.40;;;;;;;5.72;100.00;99628.34;5086818;28;20058;-28
2022/11/16 07:12:12;;;;;;;65.50;29.95;;;;;;;5.86;100.00;99648.56;5086516;28;20131;-30
2022/11/16 07:14:38;;;;;;;64.40;31.65;;;;;;;5.86;99.25;99651.19;5086859;28;20020;-29
2022/11/16 07:17:03;;;;;;;50.05;28.70;;;;;;;5.82;98.13;99623.50;5087028;28;20036;-30
2022/11/16 07:19:29;;;;;;;52.88;26.27;;;;;;;5.90;99.51;99638.41;5086776;28;20423;-28
2022/11/16 07:21:54;;;;;;;61.30;29.67;;;;;;;5.90;99.54;99625.97;5068503;28;20032;-28
2022/11/16 07:24:19;;;;;;;66.18;27.20;;;;;;;5.93;99.27;99628.22;5086418;28;20020;-28
2022/11/16 07:26:45;;;;;;;53.10;27.83;;;;;;;5.99;99.76;99616.88;5068283;28;20043;-30
2022/11/16 07:29:10;;;;;;;58.15;31.30;;;;;;;6.11;98.36;99610.97;5086852;28;20103;-32
2022/11/16 07:31:35;;;;;;;51.70;30.17;;;;;;;6.09;98.91;99591.84;5086852;28;20028;-29
2022/11/16 07:34:01;;;;;;;60.25;31.38;;;;;;;6.21;98.77;99595.53;5087244;28;20028;-31
2022/11/16 07:36:26;;;;;;;65.95;31.10;;;;;;;6.62;97.44;99619.19;5086464;28;20028;-28
2022/11/16 07:38:52;;;;;;;59.97;29.08;;;;;;;6.61;97.32;99612.25;5085090;28;20410;-29
2022/11/16 07:41:18;;;;;;;52.67;28.33;;;;;;;6.77;96.87;99616.34;5068144;28;20028;-28
2022/11/16 07:43:44;;;;;;;55.88;30.40;;;;;;;6.97;97.79;99604.91;5086421;28;20030;-28
2022/11/16 07:46:11;;;;;;;63.65;31.23;;;;;;;6.91;99.05;99611.03;5086714;28;20036;-28
2022/11/16 07:48:36;;;;;;;55.30;30.75;;;;;;;6.88;98.80;99593.69;5067935;28;20121;-31
2022/11/16 07:51:07;;;;;;;64.63;32.08;;;;;;;7.00;97.48;99599.19;5086719;28;20032;-30
2022/11/16 07:53:33;;;;;;;55.45;27.40;;;;;;;7.08;96.70;99606.91;5066678;28;20039;-36
2022/11/16 07:55:59;;;;;;;66.28;29.42;;;;;;;7.01;95.43;99608.78;5067422;28;20494;-29
2022/11/16 07:58:27;;;;;;;62.20;29.35;;;;;;;6.60;97.23;99588.63;5084696;28;20115;-31
2022/11/16 08:00:52;;;;;;;68.32;31.00;;;;;;;6.53;99.28;99591.28;5086399;28;20487;-30
2022/11/16 08:03:18;;;;;;;57.97;31.65;;;;;;;6.90;99.67;99609.41;5089401;28;20043;-28
2022/11/16 08:05:43;;;;;;;57.88;34.05;;;;;;;7.16;97.15;99604.03;5090134;28;20028;-28
2022/11/16 08:08:10;;;;;;;61.58;32.08;;;;;;;7.12;98.20;99608.13;5090048;28;20032;-31
2022/11/16 08:10:35;;;;;;;63.03;31.05;;;;;;;6.84;98.61;99566.81;5088486;28;20173;-31
2022/11/16 08:13:01;;;;;;;66.25;32.13;;;;;;;7.26;98.38;99602.81;5090155;28;20506;-28
2022/11/16 08:15:26;;;;;;;63.38;31.35;;;;;;;7.36;97.15;99581.97;5090060;28;20816;-28
2022/11/16 08:17:52;;;;;;;73.28;32.03;;;;;;;7.50;96.36;99588.84;5089885;28;20028;-31
2022/11/16 08:20:17;;;;;;;65.53;32.88;;;;;;;7.35;97.76;99582.97;5071590;28;20036;-28
2022/11/16 08:22:44;;;;;;;59.83;31.13;;;;;;;7.26;98.63;99571.78;5090177;28;20703;-29
2022/11/16 08:25:10;;;;;;;62.05;33.40;;;;;;;7.53;98.03;99577.00;5071224;28;20024;-31
2022/11/16 08:27:35;;;;;;;58.80;33.53;;;;;;;7.84;98.34;99589.50;5089692;28;20032;-30
2022/11/16 08:30:02;;;;;;;69.07;35.80;;;;;;;7.91;97.26;99590.28;5071305;28;20024;-29
2022/11/16 08:32:28;;;;;;;56.17;31.33;;;;;;;7.85;96.90;99564.59;5071387;28;20027;-28
2022/11/16 08:34:54;;;;;;;67.38;37.63;;;;;;;7.82;96.47;99571.13;5071259;28;20036;-27
2022/11/16 08:37:20;;;;;;;63.95;33.40;;;;;;;8.13;98.62;99576.66;5089709;28;20036;-31
2022/11/16 08:39:45;;;;;;;72.43;34.88;;;;;;;8.21;95.17;99585.19;5070965;28;20687;-28
2022/11/16 08:42:11;;;;;;;67.43;33.45;;;;;;;7.92;95.96;99569.84;5054287;28;20240;-29
2022/11/16 08:44:36;;;;;;;60.15;31.63;;;;;;;7.64;97.63;99560.38;5089393;28;20028;-28
2022/11/16 08:47:01;;;;;;;63.35;32.33;;;;;;;7.77;97.98;99578.91;5088688;28;20059;-28
2022/11/16 08:49:30;;;;;;;68.50;34.50;;;;;;;7.80;98.03;99572.34;5089488;28;20039;-28
2022/11/16 08:51:55;;;;;;;;;;;;;;;7.98;98.92;99575.13;5071270;28;20092;-29
2022/11/16 08:54:21;;;;;;;63.75;34.72;;;;;;;8.28;97.26;99561.22;5088959;28;19981;-31
2022/11/16 08:56:46;;;;;;;66.65;38.08;;;;;;;8.38;96.58;99556.25;5089260;28;20092;-29
2022/11/16 08:59:12;;;;;;;61.63;32.67;;;;;;;8.53;97.50;99566.56;5089223;28;20043;-31
2022/11/16 09:01:38;;;;;;;64.15;34.17;;;;;;;8.91;96.14;99551.50;5089113;28;20024;-28
2022/11/16 09:04:03;;;;;;;64.22;33.80;;;;;;;9.26;93.82;99559.72;5088970;28;20028;-28
2022/11/16 09:06:29;;;;;;;63.10;32.58;;;;;;;9.55;93.48;99547.47;5070291;28;20028;-33
2022/11/16 09:08:55;;;;;;;66.25;34.20;;;;;;;9.50;94.27;99541.19;5088658;28;20471;-27
2022/11/16 09:11:22;;;;;;;61.78;33.60;;;;;;;9.75;94.10;99535.78;5088985;28;20028;-32
2022/11/16 09:13:49;;;;;;;65.47;34.00;;;;;;;9.94;91.48;99550.63;5069828;28;20600;-30
2022/11/16 09:16:16;;;;;;;64.97;35.03;;;;;;;10.12;90.62;99522.31;5088681;28;20658;-29
2022/11/16 09:18:43;;;;;;;65.80;34.25;;;;;;;10.31;89.60;99531.84;5070213;28;20093;-30
2022/11/16 09:21:08;;;;;;;60.53;32.60;;;;;;;10.27;89.98;99528.81;5070173;28;20100;-31
2022/11/16 09:23:34;;;;;;;58.10;32.00;;;;;;;10.29;91.37;99514.44;5088463;28;20051;-31
2022/11/16 09:26:04;;;;;;;56.22;31.27;;;;;;;10.00;91.66;99496.44;5089007;28;20032;-31
2022/11/16 09:28:30;;;;;;;56.65;31.27;;;;;;;10.24;91.61;99509.81;5070118;28;20070;-31
2022/11/16 09:31:00;;;;;;;55.63;31.95;;;;;;;10.51;90.66;99518.19;5088470;28;20036;-33
2022/11/16 09:33:31;;;;;;;58.50;32.50;;;;;;;10.81;89.75;99501.28;5088702;28;20027;-29
2022/11/16 09:36:07;;;;;;;57.00;32.67;;;;;;;10.73;90.55;99499.75;5069927;28;20123;-30
2022/11/16 09:38:43;;;;;;;62.05;34.08;;;;;;;11.05;88.13;99475.34;5070125;28;20028;-33
2022/11/16 09:41:14;;;;;;;56.72;31.85;;;;;;;11.49;88.37;99498.88;5069893;28;20063;-29
2022/11/16 09:44:34;;;;;;;57.03;33.20;;;;;;;12.04;86.89;99488.38;5088386;28;20036;-28
2022/11/16 09:47:01;;;;;;;57.10;31.50;;;;;;;11.82;86.44;99458.88;5025114;28;20064;-28
2022/11/16 09:49:39;;;;;;;64.07;33.03;;;;;;;12.08;85.83;99455.84;5073975;28;20040;-30
2022/11/16 09:52:26;;;;;;;57.22;33.85;;;;;;;12.22;83.41;99468.63;5069946;28;20062;-29
2022/11/16 09:54:55;;;;;;;59.67;33.83;;;;;;;12.45;84.34;99440.06;5069854;28;20039;-29
2022/11/16 09:57:27;;;;;;;55.95;33.88;;;;;;;12.75;83.34;99449.53;5069899;28;20418;-30
2022/11/16 10:00:01;;;;;;;60.55;33.78;;;;;;;12.48;83.97;99454.81;5069518;28;20039;-28
2022/11/16 10:02:35;;;;;;;56.40;31.23;;;;;;;12.72;81.71;99442.03;5087845;28;20543;-30
2022/11/16 10:05:23;;;;;;;50.50;30.80;;;;;;;13.03;81.23;99440.53;5069315;28;20492;-30
2022/11/16 10:07:53;;;;;;;57.38;33.47;;;;;;;13.19;81.76;99428.13;5086932;28;20123;-28
2022/11/16 10:10:35;;;;;;;53.65;31.00;;;;;;;13.70;80.05;99423.28;5087522;28;20028;-28
2022/11/16 10:13:13;;;;;;;55.20;31.80;;;;;;;13.80;79.00;99418.00;5069429;28;20067;-28
2022/11/16 10:16:10;;;;;;;51.17;29.67;;;;;;;13.83;78.88;99414.84;5069282;28;20597;-29
2022/11/16 10:18:54;;;;;;;62.03;41.83;;;;;;;13.91;77.57;99410.06;5069410;28;20385;-28
2022/11/16 10:21:27;;;;;;;57.28;31.65;;;;;;;14.72;76.42;99396.34;5069343;28;20057;-28
2022/11/16 10:24:19;;;;;;;49.83;29.15;;;;;;;14.95;72.47;99399.63;5087355;28;20039;-29
2022/11/16 10:26:58;;;;;;;48.75;28.77;;;;;;;14.60;72.44;99387.69;5087087;28;20039;-29
2022/11/16 10:29:32;;;;;;;47.67;28.05;;;;;;;15.00;72.08;99384.34;5069061;28;20036;-30
2022/11/16 10:32:06;;;;;;;42.58;26.52;;;;;;;15.38;68.84;99384.94;5069099;28;20761;-32
2022/11/16 10:34:53;;;;;;;47.00;26.00;;;;;;;15.51;68.80;99380.13;5070015;28;20410;-29
2022/11/16 10:37:20;;;;;;;38.92;23.75;;;;;;;15.45;66.47;99379.34;5049106;28;20472;-30
2022/11/16 10:39:48;;;;;;;40.35;24.60;;;;;;;15.69;67.66;99382.28;5048683;28;20040;-31
2022/11/16 10:42:34;;;;;;;37.83;25.15;;;;;;;15.93;66.37;99361.03;5048692;28;20127;-29
2022/11/16 10:45:10;;;;;;;41.35;25.80;;;;;;;16.18;64.70;99364.75;5048987;28;20051;-29
2022/11/16 10:48:13;;;;;;;38.80;24.95;;;;;;;16.48;64.17;99364.66;5066458;28;20054;-29
2022/11/16 10:50:46;;;;;;;35.00;23.20;;;;;;;16.71;61.46;99354.34;5042654;28;20051;-29
2022/11/16 10:53:14;;;;;;;42.55;25.60;;;;;;;17.09;61.91;99349.31;5066833;28;20032;-29
2022/11/16 10:55:39;;;;;;;40.45;25.70;;;;;;;17.65;59.23;99356.16;5048580;28;20029;-28
2022/11/16 10:58:05;;;;;;;34.85;22.90;;;;;;;17.83;59.97;99344.72;5066632;28;20047;-29
2022/11/16 11:00:45;;;;;;;47.45;25.92;;;;;;;17.53;61.11;99348.47;5066614;28;20036;-29
2022/11/16 11:03:11;;;;;;;40.75;25.42;;;;;;;17.62;60.27;99345.97;5048562;28;20043;-29
2022/11/16 11:05:47;;;;;;;38.25;25.17;;;;;;;17.93;60.43;99338.41;5066604;28;20028;-30
2022/11/16 11:08:22;;;;;;;42.08;26.05;;;;;;;17.89;60.73;99333.88;5066441;28;20028;-28
2022/11/16 11:10:57;;;;;;;39.88;25.45;;;;;;;17.96;58.06;99335.16;5067139;28;20038;-28
2022/11/16 11:13:25;;;;;;;37.60;24.23;;;;;;;18.40;58.69;99334.13;5066660;28;20446;-30
2022/11/16 11:15:52;;;;;;;37.25;23.45;;;;;;;18.14;56.53;99316.63;5066818;28;20060;-31
2022/11/16 11:18:24;;;;;;;38.33;23.65;;;;;;;18.01;57.39;99332.41;5066477;28;20028;-29
2022/11/16 11:21:04;;;;;;;40.33;26.35;;;;;;;18.21;58.31;99319.78;5066901;28;20033;-28
2022/11/16 11:23:36;;;;;;;38.13;24.83;;;;;;;18.57;56.55;99311.22;5066499;28;20029;-31
2022/11/16 11:26:02;;;;;;;36.75;22.92;;;;;;;18.61;56.30;99315.78;5066671;28;20024;-29
2022/11/16 11:28:37;;;;;;;39.22;24.42;;;;;;;18.84;54.98;99302.53;5048245;28;20036;-30
2022/11/16 11:31:10;;;;;;;51.25;23.88;;;;;;;18.73;54.21;99304.53;5048484;28;20487;-28
2022/11/16 11:33:42;;;;;;;34.47;22.60;;;;;;;19.05;54.07;99301.13;5066702;28;20404;-31
2022/11/16 11:36:17;;;;;;;36.20;23.02;;;;;;;18.90;53.96;99293.25;5047716;28;20025;-32
2022/11/16 11:38:55;;;;;;;35.35;21.55;;;;;;;18.74;53.68;99294.56;5051342;28;20039;-31
2022/11/16 11:41:20;;;;;;;36.47;23.58;;;;;;;18.57;55.52;99286.94;5052407;28;20029;-29
2022/11/16 11:44:02;;;;;;;38.45;23.20;;;;;;;18.55;55.48;99276.44;5070270;28;20040;-34
2022/11/16 11:46:29;;;;;;;37.47;24.00;;;;;;;18.83;55.07;99282.81;5070321;28;20472;-28
2022/11/16 11:49:13;;;;;;;33.55;22.27;;;;;;;18.95;52.28;99270.75;5070112;28;20071;-30
2022/11/16 11:51:42;;;;;;;35.00;22.20;;;;;;;18.60;54.25;99265.56;5051983;28;20032;-28
2022/11/16 11:54:19;;;;;;;36.50;22.83;;;;;;;18.74;52.51;99268.34;5052052;28;20028;-29
2022/11/16 11:56:44;;;;;;;35.25;22.45;;;;;;;18.48;53.63;99265.97;5070512;28;20033;-28
2022/11/16 11:59:17;;;;;;;35.45;22.38;;;;;;;18.38;54.43;99255.31;5069742;28;20062;-36
2022/11/16 12:02:02;;;;;;;34.53;23.00;;;;;;;18.34;53.43;99257.00;5051793;28;20523;-28
2022/11/16 12:04:49;;;;;;;30.63;21.15;;;;;;;17.72;56.22;99253.41;5068266;28;20035;-28
2022/11/16 12:07:47;;;;;;;33.78;20.65;;;;;;;17.87;55.81;99251.34;5069811;28;20032;-29
2022/11/16 12:10:38;;;;;;;31.10;20.63;;;;;;;17.98;55.64;99249.34;5051302;28;20036;-29